Time;durP1;ratioP1;P1;durP2;ratioP2;P2;SDS_P1;SDS_P2;PMS_P1;PMS_P2;Temp;Humidity;BMP_temperature;BMP_pressure;BME280_temperature;BME280_humidity;BME280_pressure;Samples;Min_cycle;Max_cycle;Signal;HPM_P1;HPM_P2
2024/02/10 00:01:12;;;;;;;;;;;;;;;12.31;83.49;99052.66;4988831;28;19922;-85
2024/02/10 00:04:09;;;;;;;;;;;;;;;12.27;83.66;99054.56;4978967;28;19918;-85
2024/02/10 00:07:01;;;;;;;;;;;;;;;12.25;83.64;99045.94;4979675;28;19914;-84
2024/02/10 00:09:53;;;;;;;;;;;;;;;12.25;83.67;99048.69;4974414;28;19918;-84
2024/02/10 00:12:45;;;;;;;;;;;;;;;12.23;83.82;99034.66;4977271;28;19918;-84
2024/02/10 00:15:37;;;;;;;;;;;;;;;12.44;83.78;99035.72;4976234;28;19919;-85
2024/02/10 00:18:29;;;;;;;;;;;;;;;12.52;82.24;99027.66;4974298;28;19922;-84
2024/02/10 00:21:20;;;;;;;;;;;;;;;12.43;82.46;99017.81;4980026;28;19918;-84
2024/02/10 00:24:12;;;;;;;;;;;;;;;12.44;82.43;99013.16;4975011;28;19922;-84
2024/02/10 00:27:01;;;;;;;;;;;;;;;12.53;81.46;99010.94;4979348;28;19918;-84
2024/02/10 00:29:53;;;;;;;;;;;;;;;12.40;81.83;99001.38;4973488;28;19918;-84
2024/02/10 00:32:47;;;;;;;;;;;;;;;12.42;82.53;98996.38;4972554;28;20477;-83
2024/02/10 00:35:37;;;;;;;;;;;;;;;12.55;80.81;99003.16;4978480;28;19926;-84
2024/02/10 00:38:28;;;;;;;;;;;;;;;12.35;81.08;98998.97;4975587;28;19922;-84
2024/02/10 00:41:20;;;;;;;;;;;;;;;12.08;82.73;98997.44;4973915;28;19922;-85
2024/02/10 00:44:12;;;;;;;;;;;;;;;12.19;83.31;99001.13;4977653;28;19918;-84
2024/02/10 00:47:09;;;;;;;;;;;;;;;12.27;82.64;98991.88;4974779;28;20387;-84
2024/02/10 00:50:01;;;;;;;;;;;;;;;12.53;81.78;99000.03;4978185;28;19918;-84
2024/02/10 00:52:53;;;;;;;;;;;;;;;12.41;80.82;98992.06;4976647;28;19922;-85
2024/02/10 00:55:45;;;;;;;;;;;;;;;12.14;82.08;98987.81;4974026;28;19922;-85
2024/02/10 00:58:40;;;;;;;;;;;;;;;11.92;83.10;98987.50;4976260;28;19922;-84
2024/02/10 01:01:32;;;;;;;;;;;;;;;11.98;82.95;98977.84;4974813;28;20334;-84
2024/02/10 01:04:24;;;;;;;;;;;;;;;12.02;82.80;98980.63;4974427;28;19918;-84
2024/02/10 01:07:17;;;;;;;;;;;;;;;12.22;81.99;98981.28;4979465;28;19918;-83
2024/02/10 01:10:06;;;;;;;;;;;;;;;12.22;81.64;98981.28;4974673;28;19922;-84
2024/02/10 01:12:56;;;;;;;;;;;;;;;12.23;81.14;98991.03;4979455;28;19918;-85
2024/02/10 01:15:50;;;;;;;;;;;;;;;12.27;80.92;98983.69;4979666;28;20004;-86
2024/02/10 01:18:39;;;;;;;;;;;;;;;12.37;79.69;98977.59;4976452;28;19922;-85
2024/02/10 01:21:32;;;;;;;;;;;;;;;12.44;79.75;98972.25;4977882;28;19918;-85
2024/02/10 01:24:20;;;;;;;;;;;;;;;12.39;79.36;98975.31;4976402;28;20292;-84
2024/02/10 01:27:12;;;;;;;;;;;;;;;12.43;79.02;98966.03;4977291;28;19918;-85
2024/02/10 01:30:03;;;;;;;;;;;;;;;12.35;79.27;98964.34;4977546;28;20295;-84
2024/02/10 01:32:57;;;;;;;;;;;;;;;12.09;80.73;98963.59;4982693;28;19918;-84
2024/02/10 01:35:49;;;;;;;;;;;;;;;11.99;81.84;98971.22;4980989;28;19922;-84
2024/02/10 01:38:47;;;;;;;;;;;;;;;11.94;82.73;98970.75;4979417;28;19922;-84
2024/02/10 01:41:39;;;;;;;;;;;;;;;11.90;82.97;98970.72;4976975;28;19922;-84
2024/02/10 01:44:32;;;;;;;;;;;;;;;12.05;82.76;98973.63;4980145;28;19918;-84
2024/02/10 01:47:24;;;;;;;;;;;;;;;12.04;82.01;98969.38;4978011;28;19918;-84
2024/02/10 01:50:16;;;;;;;;;;;;;;;12.09;81.66;98969.06;4982300;28;19918;-83
2024/02/10 01:53:08;;;;;;;;;;;;;;;11.92;81.69;98962.97;4982355;28;19918;-85
2024/02/10 01:56:00;;;;;;;;;;;;;;;11.72;82.74;98961.47;4977306;28;19922;-84
2024/02/10 01:58:49;;;;;;;;;;;;;;;11.71;82.97;98959.88;4964160;28;19926;-84
2024/02/10 02:01:42;;;;;;;;;;;;;;;11.46;84.28;98947.81;4979242;28;19918;-85
2024/02/10 02:04:35;;;;;;;;;;;;;;;11.12;86.57;98953.06;4982226;28;20379;-83
2024/02/10 02:07:27;;;;;;;;;;;;;;;11.18;87.02;98947.31;4980064;28;19918;-84
2024/02/10 02:10:21;;;;;;;;;;;;;;;11.37;86.26;98928.22;4978090;28;19918;-84
2024/02/10 02:13:13;;;;;;;;;;;;;;;11.45;85.72;98924.47;4975963;28;19918;-84
2024/02/10 02:16:05;;;;;;;;;;;;;;;11.57;84.70;98929.72;4978588;28;19918;-83
2024/02/10 02:19:00;;;;;;;;;;;;;;;11.52;84.90;98924.59;4978161;28;20391;-84
2024/02/10 02:21:52;;;;;;;;;;;;;;;11.71;84.35;98913.59;4980548;28;19918;-84
2024/02/10 02:24:43;;;;;;;;;;;;;;;11.94;83.13;98914.34;4977828;28;19918;-84
2024/02/10 02:27:40;;;;;;;;;;;;;;;12.10;81.79;98910.66;4975458;28;19926;-83
2024/02/10 02:30:35;;;;;;;;;;;;;;;12.21;81.39;98901.47;4979456;28;19918;-84
2024/02/10 02:33:27;;;;;;;;;;;;;;;12.13;80.52;98904.50;4976874;28;20303;-84
2024/02/10 02:36:18;;;;;;;;;;;;;;;11.66;82.85;98899.50;4979562;28;19922;-84
2024/02/10 02:39:10;;;;;;;;;;;;;;;11.75;83.26;98900.84;4971773;28;19922;-84
2024/02/10 02:42:02;;;;;;;;;;;;;;;11.48;83.61;98901.94;4976095;28;19919;-84
2024/02/10 02:44:55;;;;;;;;;;;;;;;11.46;84.29;98893.38;4979826;28;19919;-84
2024/02/10 02:47:44;;;;;;;;;;;;;;;11.58;83.68;98885.00;4980915;28;19918;-84
2024/02/10 02:50:36;;;;;;;;;;;;;;;11.46;83.99;98879.78;4981374;28;19922;-84
2024/02/10 02:53:28;;;;;;;;;;;;;;;11.40;84.09;98881.22;4978812;28;19918;-85
2024/02/10 02:56:20;;;;;;;;;;;;;;;11.50;83.88;98877.88;4976630;28;20135;-84
2024/02/10 02:59:12;;;;;;;;;;;;;;;11.49;83.61;98879.03;4976532;28;20380;-84
2024/02/10 03:02:04;;;;;;;;;;;;;;;11.59;83.64;98879.19;4977997;28;19918;-84
2024/02/10 03:04:56;;;;;;;;;;;;;;;11.56;83.05;98877.22;4976489;28;19922;-83
2024/02/10 03:07:49;;;;;;;;;;;;;;;11.54;83.58;98873.28;4980461;28;19922;-84
2024/02/10 03:10:41;;;;;;;;;;;;;;;11.63;82.81;98870.31;4981294;28;19922;-85
2024/02/10 03:13:33;;;;;;;;;;;;;;;11.69;82.16;98869.59;4980149;28;19918;-84
2024/02/10 03:16:25;;;;;;;;;;;;;;;11.75;81.74;98868.16;4980565;28;19918;-84
2024/02/10 03:19:17;;;;;;;;;;;;;;;11.81;81.81;98877.59;4975803;28;19925;-84
2024/02/10 03:22:09;;;;;;;;;;;;;;;11.85;81.05;98872.97;4979664;28;20384;-84
2024/02/10 03:25:01;;;;;;;;;;;;;;;11.88;80.65;98872.25;4977386;28;19922;-83
2024/02/10 03:27:53;;;;;;;;;;;;;;;11.85;80.71;98862.09;4974686;28;20560;-83
2024/02/10 03:30:45;;;;;;;;;;;;;;;11.79;81.06;98860.84;4980727;28;19922;-84
2024/02/10 03:33:37;;;;;;;;;;;;;;;11.82;80.46;98856.59;4976197;28;19922;-83
2024/02/10 03:36:29;;;;;;;;;;;;;;;11.96;79.69;98870.41;4974301;28;19918;-83
2024/02/10 03:39:19;;;;;;;;;;;;;;;11.98;79.90;98862.66;4975528;28;19926;-83
2024/02/10 03:42:08;;;;;;;;;;;;;;;11.94;80.14;98867.25;4975498;28;19921;-83
2024/02/10 03:45:00;;;;;;;;;;;;;;;11.95;79.38;98866.09;4986980;28;19922;-84
2024/02/10 03:48:02;;;;;;;;;;;;;;;12.03;79.24;98864.28;4997248;28;19922;-83
2024/02/10 03:50:54;;;;;;;;;;;;;;;12.12;78.62;98870.22;4993452;28;19917;-83
2024/02/10 03:53:46;;;;;;;;;;;;;;;12.15;78.67;98869.47;4997530;28;19917;-84
2024/02/10 03:56:41;;;;;;;;;;;;;;;12.10;78.38;98865.13;4994681;28;19922;-83
2024/02/10 03:59:33;;;;;;;;;;;;;;;12.04;78.43;98855.72;4994351;28;19926;-84
2024/02/10 04:02:25;;;;;;;;;;;;;;;12.06;78.49;98845.25;4996764;28;19918;-82
2024/02/10 04:05:14;;;;;;;;;;;;;;;12.05;78.49;98848.31;4999535;28;19918;-83
2024/02/10 04:08:06;;;;;;;;;;;;;;;12.04;78.58;98838.59;4997858;28;20311;-84
2024/02/10 04:10:58;;;;;;;;;;;;;;;11.98;78.66;98828.03;4995935;28;19921;-84
2024/02/10 04:13:50;;;;;;;;;;;;;;;11.94;78.84;98824.47;4993503;28;19917;-84
2024/02/10 04:16:42;;;;;;;;;;;;;;;12.00;78.55;98819.47;4996658;28;20311;-84
2024/02/10 04:19:34;;;;;;;;;;;;;;;12.05;78.43;98815.63;4993703;28;20314;-82
2024/02/10 04:22:23;;;;;;;;;;;;;;;12.02;78.41;98803.56;4992530;28;20375;-84
2024/02/10 04:25:15;;;;;;;;;;;;;;;12.02;78.61;98797.31;4996131;28;19917;-83
2024/02/10 04:28:07;;;;;;;;;;;;;;;12.05;78.52;98799.28;4993486;28;19918;-83
2024/02/10 04:30:59;;;;;;;;;;;;;;;12.10;77.88;98798.94;4999034;28;19917;-84
2024/02/10 04:33:52;;;;;;;;;;;;;;;12.06;78.22;98800.84;4995241;28;20307;-83
2024/02/10 04:36:45;;;;;;;;;;;;;;;12.08;77.62;98796.63;4992499;28;19921;-83
2024/02/10 04:39:37;;;;;;;;;;;;;;;12.04;77.77;98787.59;4993368;28;19921;-84
2024/02/10 04:42:29;;;;;;;;;;;;;;;12.08;77.71;98785.72;4994649;28;19918;-85
2024/02/10 04:45:29;;;;;;;;;;;;;;;12.03;77.82;98775.16;4997897;28;20379;-84
2024/02/10 04:48:24;;;;;;;;;;;;;;;12.00;78.07;98770.44;4997025;28;19918;-84
2024/02/10 04:51:16;;;;;;;;;;;;;;;12.00;77.90;98776.69;4993475;28;19918;-85
2024/02/10 04:54:08;;;;;;;;;;;;;;;12.06;77.49;98770.91;4996707;28;19926;-84
2024/02/10 04:57:00;;;;;;;;;;;;;;;12.03;77.73;98766.19;4994621;28;20311;-84
2024/02/10 04:59:52;;;;;;;;;;;;;;;12.02;77.65;98764.63;4995272;28;19926;-84
2024/02/10 05:02:44;;;;;;;;;;;;;;;12.04;77.66;98760.34;5002754;28;20387;-83
2024/02/10 05:05:33;;;;;;;;;;;;;;;12.12;77.29;98763.97;4997555;28;19917;-83
2024/02/10 05:08:25;;;;;;;;;;;;;;;12.11;76.97;98759.66;5000278;28;19922;-83
2024/02/10 05:11:17;;;;;;;;;;;;;;;12.06;77.09;98762.72;4999290;28;19917;-84
2024/02/10 05:14:09;;;;;;;;;;;;;;;12.08;76.94;98763.94;5002705;28;19918;-83
2024/02/10 05:17:01;;;;;;;;;;;;;;;12.10;77.25;98758.88;5002700;28;19922;-84
2024/02/10 05:19:54;;;;;;;;;;;;;;;12.11;77.19;98754.22;4996450;28;20310;-84
2024/02/10 05:22:46;;;;;;;;;;;;;;;12.13;77.24;98752.69;4996249;28;19925;-84
2024/02/10 05:25:38;;;;;;;;;;;;;;;12.10;77.17;98755.38;4999291;28;19918;-83
2024/02/10 05:28:30;;;;;;;;;;;;;;;12.08;77.32;98760.41;4997289;28;19922;-83
2024/02/10 05:31:22;;;;;;;;;;;;;;;12.07;77.49;98758.84;5001165;28;19918;-82
2024/02/10 05:34:18;;;;;;;;;;;;;;;12.08;77.28;98760.41;4999507;28;20506;-84
2024/02/10 05:37:10;;;;;;;;;;;;;;;12.18;76.84;98751.56;4996464;28;19918;-83
2024/02/10 05:39:59;;;;;;;;;;;;;;;12.20;76.38;98755.47;5002191;28;19937;-84
2024/02/10 05:42:54;;;;;;;;;;;;;;;12.22;76.50;98752.38;5002381;28;19918;-83
2024/02/10 05:45:46;;;;;;;;;;;;;;;12.17;76.64;98756.25;4996066;28;19926;-85
2024/02/10 05:48:43;;;;;;;;;;;;;;;12.13;77.35;98751.91;4999516;28;19918;-84
2024/02/10 05:51:38;;;;;;;;;;;;;;;12.09;77.28;98757.31;5000507;28;19918;-84
2024/02/10 05:54:30;;;;;;;;;;;;;;;12.10;77.58;98760.81;4997932;28;19918;-85
2024/02/10 05:57:20;;;;;;;;;;;;;;;12.10;77.52;98760.81;4978249;28;20388;-83
2024/02/10 06:00:09;;;;;;;;;;;;;;;12.08;77.55;98758.47;4981570;28;20415;-84
2024/02/10 06:03:01;;;;;;;;;;;;;;;12.07;77.97;98761.56;4982749;28;19926;-83
2024/02/10 06:05:53;;;;;;;;;;;;;;;12.15;77.55;98772.16;4978538;28;19918;-85
2024/02/10 06:08:45;;;;;;;;;;;;;;;12.16;77.70;98778.41;4980504;28;20379;-83
2024/02/10 06:11:37;;;;;;;;;;;;;;;12.18;77.84;98776.09;4978173;28;20380;-85
2024/02/10 06:14:29;;;;;;;;;;;;;;;12.18;78.03;98776.09;4977174;28;20406;-85
2024/02/10 06:17:23;;;;;;;;;;;;;;;12.18;78.25;98781.56;4982193;28;19926;-84
2024/02/10 06:20:22;;;;;;;;;;;;;;;12.12;78.81;98781.09;4979710;28;19923;-85
2024/02/10 06:23:11;;;;;;;;;;;;;;;12.11;78.99;98781.47;4976543;28;19922;-84
2024/02/10 06:26:03;;;;;;;;;;;;;;;12.12;79.19;98781.09;4973171;28;19918;-84
2024/02/10 06:28:55;;;;;;;;;;;;;;;12.10;79.33;98785.34;4978550;28;19918;-84
2024/02/10 06:31:47;;;;;;;;;;;;;;;12.04;79.66;98781.41;4982583;28;20376;-84
2024/02/10 06:34:39;;;;;;;;;;;;;;;12.03;79.70;98788.78;4982025;28;20324;-83
2024/02/10 06:37:32;;;;;;;;;;;;;;;12.02;80.17;98789.16;4981576;28;20312;-84
2024/02/10 06:40:24;;;;;;;;;;;;;;;11.97;80.60;98796.50;4979676;28;19922;-84
2024/02/10 06:43:15;;;;;;;;;;;;;;;11.90;81.06;98790.94;4977421;28;20299;-85
2024/02/10 06:46:07;;;;;;;;;;;;;;;11.91;81.18;98792.53;4975106;28;19922;-83
2024/02/10 06:48:59;;;;;;;;;;;;;;;11.84;81.83;98795.16;4977985;28;19918;-83
2024/02/10 06:51:51;;;;;;;;;;;;;;;11.86;81.84;98794.78;4977300;28;19918;-84
2024/02/10 06:54:38;;;;;;;;;;;;;;;11.81;82.39;98798.63;4980061;28;19922;-83
2024/02/10 06:57:30;;;;;;;;;;;;;;;11.72;82.76;98802.75;4977822;28;19918;-84
2024/02/10 07:00:22;;;;;;;;;;;;;;;11.73;82.95;98804.34;4981215;28;19926;-83
2024/02/10 07:03:14;;;;;;;;;;;;;;;11.80;82.67;98809.88;4981459;28;19922;-84
2024/02/10 07:06:09;;;;;;;;;;;;;;;11.85;82.20;98817.72;4976625;28;20307;-83
2024/02/10 07:09:01;;;;;;;;;;;;;;;11.81;82.27;98814.97;4978508;28;19919;-83
2024/02/10 07:11:53;;;;;;;;;;;;;;;11.84;81.96;98821.59;4992977;28;19917;-85
2024/02/10 07:14:48;;;;;;;;;;;;;;;11.86;82.02;98822.81;5000921;28;20399;-83
2024/02/10 07:17:40;;;;;;;;;;;;;;;11.91;82.08;98827.16;4998825;28;19925;-82
2024/02/10 07:20:32;;;;;;;;;;;;;;;11.91;81.93;98827.16;4996282;28;19926;-83
2024/02/10 07:23:26;;;;;;;;;;;;;;;11.91;82.22;98824.41;4994524;28;19922;-85
2024/02/10 07:26:19;;;;;;;;;;;;;;;11.90;82.45;98826.34;5000632;28;20386;-85
2024/02/10 07:29:11;;;;;;;;;;;;;;;12.07;82.52;98832.41;4987280;28;19919;-84
2024/02/10 07:32:03;;;;;;;;;;;;;;;12.22;81.60;98826.75;4996080;28;19922;-84
2024/02/10 07:34:53;;;;;;;;;;;;;;;12.10;81.72;98828.94;4977779;28;19922;-83
2024/02/10 07:37:46;;;;;;;;;;;;;;;12.06;82.15;98834.34;4983475;28;19921;-83
2024/02/10 07:40:38;;;;;;;;;;;;;;;12.10;81.90;98828.94;4984261;28;19922;-85
2024/02/10 07:43:30;;;;;;;;;;;;;;;12.02;82.95;98835.47;4990930;28;19918;-86
2024/02/10 07:46:22;;;;;;;;;;;;;;;11.93;83.31;98836.53;4987325;28;19926;-87
2024/02/10 07:49:14;;;;;;;;;;;;;;;11.76;84.50;98834.34;4998060;28;19917;-84
2024/02/10 07:52:06;;;;;;;;;;;;;;;11.57;85.76;98834.44;4981115;28;19922;-84
2024/02/10 07:54:57;;;;;;;;;;;;;;;11.48;86.80;98837.41;4981707;28;19918;-84
2024/02/10 07:57:49;;;;;;;;;;;;;;;11.45;87.47;98831.94;4978221;28;19922;-84
2024/02/10 08:00:39;;;;;;;;;;;;;;;11.52;87.30;98837.50;4977227;28;19926;-83
2024/02/10 08:03:33;;;;;;;;;;;;;;;11.45;87.54;98840.09;4980878;28;19918;-85
2024/02/10 08:06:32;;;;;;;;;;;;;;;11.41;87.50;98840.06;4976592;28;19921;-83
2024/02/10 08:09:27;;;;;;;;;;;;;;;11.46;87.95;98839.75;4974234;28;19922;-83
2024/02/10 08:12:25;;;;;;;;;;;;;;;11.49;87.69;98839.00;4980598;28;19918;-83
2024/02/10 08:15:18;;;;;;;;;;;;;;;11.48;87.83;98833.91;4974882;28;19919;-83
2024/02/10 08:18:08;;;;;;;;;;;;;;;11.49;87.91;98835.47;4977841;28;19918;-83
2024/02/10 08:21:01;;;;;;;;;;;;;;;11.50;88.26;98840.56;4976430;28;19922;-83
2024/02/10 08:23:52;;;;;;;;;;;;;;;11.58;88.07;98846.88;4981344;28;19918;-83
2024/02/10 08:26:49;;;;;;;;;;;;;;;11.54;88.21;98844.13;4987316;28;20302;-83
2024/02/10 08:29:41;;;;;;;;;;;;;;;11.58;87.76;98842.22;4979965;28;19922;-82
2024/02/10 08:32:35;;;;;;;;;;;;;;;11.52;88.00;98845.66;4990272;28;19918;-84
2024/02/10 08:35:27;;;;;;;;;;;;;;;11.51;88.28;98838.63;4998238;28;20384;-84
2024/02/10 08:38:20;;;;;;;;;;;;;;;11.58;88.11;98844.94;4994757;28;19918;-84
2024/02/10 08:41:13;;;;;;;;;;;;;;;11.62;87.59;98841.50;4993128;28;19917;-83
2024/02/10 08:44:05;;;;;;;;;;;;;;;11.54;88.28;98840.63;4988767;28;19918;-84
2024/02/10 08:46:55;;;;;;;;;;;;;;;11.59;87.88;98837.56;4995846;28;19918;-84
2024/02/10 08:49:47;;;;;;;;;;;;;;;11.59;87.69;98829.41;4990695;28;19918;-83
2024/02/10 08:52:39;;;;;;;;;;;;;;;11.61;87.85;98829.84;4981670;28;19918;-82
2024/02/10 08:55:31;;;;;;;;;;;;;;;11.62;87.50;98836.84;4989119;28;19918;-82
2024/02/10 08:58:23;;;;;;;;;;;;;;;11.62;87.72;98827.91;4986180;28;20299;-82
2024/02/10 09:01:15;;;;;;;;;;;;;;;11.62;87.53;98836.84;4986977;28;19922;-84
2024/02/10 09:04:08;;;;;;;;;;;;;;;11.61;87.77;98839.94;4987877;28;19918;-83
2024/02/10 09:06:57;;;;;;;;;;;;;;;11.63;88.06;98830.22;4985390;28;19917;-82
2024/02/10 09:09:49;;;;;;;;;;;;;;;11.59;87.98;98819.31;4989600;28;19918;-84
2024/02/10 09:12:42;;;;;;;;;;;;;;;11.58;88.36;98819.66;4981717;28;19922;-84
2024/02/10 09:15:34;;;;;;;;;;;;;;;11.55;88.85;98812.25;4989893;28;19918;-84
2024/02/10 09:18:26;;;;;;;;;;;;;;;11.66;88.95;98802.28;4996474;28;19926;-84
2024/02/10 09:21:18;;;;;;;;;;;;;;;11.69;88.32;98792.59;4978734;28;19918;-83
2024/02/10 09:24:16;;;;;;;;;;;;;;;11.76;87.77;98795.44;4991098;28;19918;-84
2024/02/10 09:27:09;;;;;;;;;;;;;;;11.68;88.08;98791.81;4987697;28;20299;-84
2024/02/10 09:30:01;;;;;;;;;;;;;;;11.70;88.56;98788.72;4981032;28;20391;-83
2024/02/10 09:32:53;;;;;;;;;;;;;;;11.68;88.41;98788.31;4989901;28;19926;-83
2024/02/10 09:35:42;;;;;;;;;;;;;;;11.65;88.71;98792.53;4981615;28;19918;-83
2024/02/10 09:38:34;;;;;;;;;;;;;;;11.71;88.71;98779.41;4997465;28;19918;-82
2024/02/10 09:41:26;;;;;;;;;;;;;;;11.76;87.97;98782.63;4985112;28;19918;-84
2024/02/10 09:44:17;;;;;;;;;;;;;;;11.79;87.98;98786.53;4991628;28;19922;-83
2024/02/10 09:47:09;;;;;;;;;;;;;;;11.71;88.18;98777.47;4987589;28;19918;-84
2024/02/10 09:50:02;;;;;;;;;;;;;;;11.77;88.10;98772.50;4996990;28;19917;-85
2024/02/10 09:52:54;;;;;;;;;;;;;;;11.89;87.90;98764.88;4993216;28;20398;-84
2024/02/10 09:55:46;;;;;;;;;;;;;;;11.94;87.53;98761.81;4987200;28;19922;-83
2024/02/10 09:58:39;;;;;;;;;;;;;;;12.05;86.47;98750.25;4989492;28;19918;-82
2024/02/10 10:01:29;;;;;;;;;;;;;;;11.99;86.58;98763.41;4993213;28;19921;-82
2024/02/10 10:04:21;;;;;;;;;;;;;;;12.11;87.18;98779.53;4998889;28;19917;-81
2024/02/10 10:07:13;;;;;;;;;;;;;;;12.29;86.26;98772.31;4992209;28;19921;-79
2024/02/10 10:10:07;;;;;;;;;;;;;;;12.49;85.35;98759.28;4976913;28;19926;-80
2024/02/10 10:12:59;;;;;;;;;;;;;;;12.54;84.79;98758.16;4990261;28;19918;-81
2024/02/10 10:15:49;;;;;;;;;;;;;;;12.51;84.21;98762.41;4984636;28;19922;-82
2024/02/10 10:18:41;;;;;;;;;;;;;;;12.65;84.18;98765.25;4991120;28;20311;-83
2024/02/10 10:21:31;;;;;;;;;;;;;;;12.80;83.31;98763.41;4994924;28;19921;-81
2024/02/10 10:24:23;;;;;;;;;;;;;;;12.90;82.76;98762.72;4994228;28;19922;-81
2024/02/10 10:27:15;;;;;;;;;;;;;;;12.86;82.61;98753.72;4986466;28;20391;-81
2024/02/10 10:30:11;;;;;;;;;;;;;;;12.78;82.47;98755.63;4987405;28;19918;-83
2024/02/10 10:33:06;;;;;;;;;;;;;;;12.72;81.69;98759.88;4996982;28;19922;-83
2024/02/10 10:35:58;;;;;;;;;;;;;;;12.57;83.21;98757.41;4996753;28;19922;-83
2024/02/10 10:38:52;;;;;;;;;;;;;;;12.47;84.46;98756.13;4999300;28;20392;-85
2024/02/10 10:41:44;;;;;;;;;;;;;;;12.46;84.45;98748.31;5003006;28;19918;-83
2024/02/10 10:44:38;;;;;;;;;;;;;;;12.43;83.30;98730.78;4994981;28;19918;-84
2024/02/10 10:47:28;;;;;;;;;;;;;;;12.60;83.13;98727.44;4995983;28;19925;-84
2024/02/10 10:50:19;;;;;;;;;;;;;;;12.63;82.53;98721.22;4997542;28;19922;-83
2024/02/10 10:53:17;;;;;;;;;;;;;;;12.56;82.17;98710.25;5005359;28;20387;-82
2024/02/10 10:56:11;;;;;;;;;;;;;;;12.59;81.56;98712.25;4993616;28;19922;-83
2024/02/10 10:59:03;;;;;;;;;;;;;;;12.37;82.47;98715.94;4981891;28;19922;-83
2024/02/10 11:02:04;;;;;;;;;;;;;;;12.31;82.83;98711.97;4995871;28;19918;-83
2024/02/10 11:05:05;;;;;;;;;;;;;;;12.32;83.19;98727.19;5000998;28;20306;-83
2024/02/10 11:08:02;;;;;;;;;;;;;;;12.49;82.55;98715.66;4980748;28;19918;-83
2024/02/10 11:10:58;;;;;;;;;;;;;;;12.39;82.86;98710.91;4980677;28;19918;-83
2024/02/10 11:13:50;;;;;;;;;;;;;;;12.34;83.58;98703.06;4978322;28;19938;-83
2024/02/10 11:16:42;;;;;;;;;;;;;;;12.37;83.78;98691.41;4976358;28;19918;-82
2024/02/10 11:19:29;;;;;;;;;;;;;;;12.43;83.37;98679.00;4977659;28;19922;-83
2024/02/10 11:22:23;;;;;;;;;;;;;;;12.47;83.13;98677.09;4995088;28;20394;-83
2024/02/10 11:25:17;;;;;;;;;;;;;;;12.54;83.16;98674.44;4996677;28;19922;-82
2024/02/10 11:28:09;;;;;;;;;;;;;;;12.66;83.19;98678.78;4982661;28;19918;-83
2024/02/10 11:31:01;;;;;;;;;;;;;;;12.60;82.93;98670.16;4976257;28;20299;-83
2024/02/10 11:33:53;;;;;;;;;;;;;;;12.68;82.73;98668.28;4981114;28;19918;-83
2024/02/10 11:36:48;;;;;;;;;;;;;;;12.62;82.83;98672.53;4966464;28;20699;-83
2024/02/10 11:39:41;;;;;;;;;;;;;;;12.62;82.74;98665.13;4974846;28;19926;-81
2024/02/10 11:42:33;;;;;;;;;;;;;;;12.75;83.10;98660.13;4986292;28;19926;-83
2024/02/10 11:45:22;;;;;;;;;;;;;;;12.69;83.08;98661.69;4989465;28;19922;-83
2024/02/10 11:48:14;;;;;;;;;;;;;;;12.67;83.46;98658.53;4992074;28;19921;-82
2024/02/10 11:51:06;;;;;;;;;;;;;;;12.66;83.24;98656.97;4987102;28;20395;-83
2024/02/10 11:53:58;;;;;;;;;;;;;;;12.65;83.87;98658.91;4983634;28;19918;-83
2024/02/10 11:56:50;;;;;;;;;;;;;;;12.66;83.86;98649.56;4980223;28;19922;-81
2024/02/10 11:59:43;;;;;;;;;;;;;;;12.67;84.23;98656.59;4974720;28;19926;-82
2024/02/10 12:02:37;;;;;;;;;;;;;;;12.65;83.88;98648.00;4999025;28;19918;-83
2024/02/10 12:05:30;;;;;;;;;;;;;;;12.80;83.48;98643.41;4988835;28;19926;-82
2024/02/10 12:08:22;;;;;;;;;;;;;;;12.94;83.08;98637.28;4988419;28;19921;-83
2024/02/10 12:11:12;;;;;;;;;;;;;;;12.98;83.21;98643.53;4989890;28;20383;-84
2024/02/10 12:14:02;;;;;;;;;;;;;;;12.90;82.73;98641.94;4986702;28;19922;-83
2024/02/10 12:16:57;;;;;;;;;;;;;;;12.89;83.62;98627.50;4984878;28;19918;-81
2024/02/10 12:19:49;;;;;;;;;;;;;;;12.86;83.90;98623.59;4989668;28;19921;-83
2024/02/10 12:22:41;;;;;;;;;;;;;;;12.78;84.04;98622.00;4977529;28;19918;-84
2024/02/10 12:25:33;;;;;;;;;;;;;;;12.88;83.65;98615.03;4985024;28;20390;-83
2024/02/10 12:28:25;;;;;;;;;;;;;;;12.80;84.53;98613.41;4979282;28;19948;-82
2024/02/10 12:31:20;;;;;;;;;;;;;;;12.88;84.19;98614.25;4981183;28;19917;-84
2024/02/10 12:34:13;;;;;;;;;;;;;;;12.97;83.50;98604.56;4997747;28;19922;-82
2024/02/10 12:37:07;;;;;;;;;;;;;;;13.01;83.13;98608.06;4986029;28;20311;-82
2024/02/10 12:39:57;;;;;;;;;;;;;;;12.80;84.27;98606.03;4987683;28;19925;-83
2024/02/10 12:42:49;;;;;;;;;;;;;;;12.74;84.74;98606.78;4979655;28;19918;-83
2024/02/10 12:45:46;;;;;;;;;;;;;;;12.63;85.08;98614.09;4975812;28;19922;-83
2024/02/10 12:48:39;;;;;;;;;;;;;;;12.59;84.96;98599.69;4973180;28;19918;-84
2024/02/10 12:51:32;;;;;;;;;;;;;;;12.60;85.68;98604.72;4979723;28;20308;-82
2024/02/10 12:54:23;;;;;;;;;;;;;;;12.58;85.92;98598.88;4982595;28;19922;-83
2024/02/10 12:57:16;;;;;;;;;;;;;;;12.57;85.31;98586.41;4991564;28;19917;-83
2024/02/10 13:00:26;;;;;;;;;;;;;;;12.62;85.50;98585.28;4989674;28;19922;-83
2024/02/10 13:03:19;;;;;;;;;;;;;;;12.66;85.38;98589.56;4982670;28;19922;-83
2024/02/10 13:06:11;;;;;;;;;;;;;;;12.60;85.84;98577.47;4993812;28;19917;-84
2024/02/10 13:09:04;;;;;;;;;;;;;;;12.54;85.93;98581.72;4981011;28;19921;-84
2024/02/10 13:11:56;;;;;;;;;;;;;;;12.56;85.67;98579.38;4987814;28;19918;-83
2024/02/10 13:14:43;;;;;;;;;;;;;;;12.51;86.29;98579.75;4992961;28;19922;-83
2024/02/10 13:17:33;;;;;;;;;;;;;;;12.49;86.43;98579.38;4985407;28;19921;-82
2024/02/10 13:20:25;;;;;;;;;;;;;;;12.53;86.25;98571.97;4990841;28;19925;-83
2024/02/10 13:23:15;;;;;;;;;;;;;;;12.54;86.44;98573.56;4980410;28;20387;-82
2024/02/10 13:26:07;;;;;;;;;;;;;;;12.52;86.24;98567.69;4997919;28;19917;-82
2024/02/10 13:28:56;;;;;;;;;;;;;;;12.51;86.74;98563.38;4991474;28;19921;-81
2024/02/10 13:31:49;;;;;;;;;;;;;;;12.51;86.32;98560.66;4981827;28;19921;-81
2024/02/10 13:34:45;;;;;;;;;;;;;;;12.49;86.78;98560.28;4998119;28;19922;-83
2024/02/10 14:05:21;;;;;;;;;;;;;;;12.76;85.33;98538.97;4989076;28;20298;-82
2024/02/10 14:11:12;;;;;;;;;;;;;;;12.57;86.41;98537.34;4996040;28;19918;-81
2024/02/10 14:14:05;;;;;;;;;;;;;;;12.59;86.21;98543.22;4991520;28;19918;-82
2024/02/10 14:17:09;;;;;;;;;;;;;;;12.48;86.76;98539.63;4990647;28;19918;-82
2024/02/10 14:20:17;;;;;;;;;;;;;;;12.55;86.72;98539.66;4984879;28;20391;-83
2024/02/10 14:23:11;;;;;;;;;;;;;;;12.52;86.83;98529.53;4990525;28;19918;-83
2024/02/10 14:26:03;;;;;;;;;;;;;;;12.42;87.30;98525.56;4983946;28;19917;-83
2024/02/10 14:28:55;;;;;;;;;;;;;;;12.42;87.79;98532.97;4990813;28;19934;-82
2024/02/10 14:31:50;;;;;;;;;;;;;;;12.19;89.08;98529.72;4988178;28;19918;-83
2024/02/10 14:34:39;;;;;;;;;;;;;;;12.19;89.72;98524.28;4992197;28;19918;-82
2024/02/10 14:37:57;;;;;;;;;;;;;;;12.17;89.65;98523.84;4977009;28;19921;-82
2024/02/10 14:40:49;;;;;;;;;;;;;;;12.12;90.73;98522.28;4988968;28;19922;-82
2024/02/10 14:43:42;;;;;;;;;;;;;;;12.13;90.63;98528.50;4988039;28;19917;-83
2024/02/10 14:46:31;;;;;;;;;;;;;;;12.17;90.54;98521.91;4989124;28;19920;-84
2024/02/10 14:49:23;;;;;;;;;;;;;;;12.03;91.15;98516.38;4989956;28;19918;-83
2024/02/10 14:52:15;;;;;;;;;;;;;;;11.98;91.79;98511.28;4982223;28;19926;-83
2024/02/10 14:55:06;;;;;;;;;;;;;;;11.97;91.89;98520.59;4999033;28;19918;-83
2024/02/10 14:57:58;;;;;;;;;;;;;;;12.03;91.98;98518.31;4984943;28;19918;-83
2024/02/10 15:00:54;;;;;;;;;;;;;;;12.04;92.32;98514.44;4991211;28;19925;-83
2024/02/10 15:03:45;;;;;;;;;;;;;;;11.98;92.58;98514.00;4998509;28;19922;-84
2024/02/10 15:06:38;;;;;;;;;;;;;;;11.99;92.69;98518.25;4989501;28;19918;-84
2024/02/10 15:09:31;;;;;;;;;;;;;;;11.95;92.95;98514.75;4977628;28;19918;-84
2024/02/10 15:12:24;;;;;;;;;;;;;;;11.88;93.91;98510.03;4997490;28;19925;-83
2024/02/10 15:15:16;;;;;;;;;;;;;;;11.89;94.06;98508.84;4995303;28;19977;-83
2024/02/10 15:18:08;;;;;;;;;;;;;;;11.89;93.61;98497.19;4986333;28;19917;-82
2024/02/10 15:20:58;;;;;;;;;;;;;;;11.89;93.47;98492.53;4989947;28;19922;-82
2024/02/10 15:23:47;;;;;;;;;;;;;;;11.84;93.71;98500.25;4992296;28;19918;-80
2024/02/10 15:26:39;;;;;;;;;;;;;;;11.76;93.82;98491.25;4988965;28;20291;-82
2024/02/10 15:29:31;;;;;;;;;;;;;;;11.77;94.12;98495.56;4990044;28;19921;-81